createdAt,value
2019-03-18T00:01:46.500Z,100370.62
2019-03-18T00:04:18.112Z,100367.11
2019-03-18T00:06:50.228Z,100369.64
2019-03-18T00:09:21.879Z,100367.82
2019-03-18T00:11:53.500Z,100372.06
2019-03-18T00:14:25.087Z,100374.23
2019-03-18T00:16:57.277Z,100370.73
2019-03-18T00:19:28.866Z,100370.73
2019-03-18T00:22:00.540Z,100367.27
2019-03-18T00:24:32.068Z,100369.85
2019-03-18T00:27:03.951Z,100362.06
2019-03-18T00:29:35.537Z,100362.56
2019-03-18T00:32:07.713Z,100355.24
2019-03-18T00:34:39.372Z,100350.54
2019-03-18T00:37:10.975Z,100352.27
2019-03-18T00:39:42.608Z,100352.80
2019-03-18T00:42:14.485Z,100353.70
2019-03-18T00:44:46.092Z,100352.90
2019-03-18T00:47:17.962Z,100351.64
2019-03-18T00:49:49.561Z,100351.72
2019-03-18T00:52:21.197Z,100349.16
2019-03-18T00:54:53.026Z,100347.05
2019-03-18T00:57:24.690Z,100355.33
2019-03-18T00:59:56.364Z,100353.69
2019-03-18T01:02:28.150Z,100351.98
2019-03-18T01:04:59.741Z,100354.64
2019-03-18T01:07:31.369Z,100359.42
2019-03-18T01:10:02.984Z,100358.20
2019-03-18T01:12:34.597Z,100353.48
2019-03-18T01:15:06.409Z,100355.28
2019-03-18T01:17:38.364Z,100351.86
2019-03-18T01:20:10.219Z,100350.14
2019-03-18T01:22:41.893Z,100347.19
2019-03-18T01:25:13.888Z,100357.67
2019-03-18T01:27:44.222Z,100363.75
2019-03-18T01:30:13.423Z,100359.83
2019-03-18T01:37:48.716Z,100366.81
2019-03-18T01:40:20.312Z,100369.03
2019-03-18T01:42:51.926Z,100366.43
2019-03-18T01:45:23.555Z,100366.43
2019-03-18T01:47:55.334Z,100368.55
2019-03-18T01:50:26.907Z,100370.28
2019-03-18T01:52:58.869Z,100382.86
2019-03-18T01:55:30.488Z,100372.53
2019-03-18T01:58:02.327Z,100378.17
2019-03-18T02:00:33.961Z,100376.50
2019-03-18T02:03:07.145Z,100376.06
2019-03-18T02:05:39.010Z,100379.49
2019-03-18T02:08:10.800Z,100377.80
2019-03-18T02:10:42.479Z,100383.45
2019-03-18T02:13:14.092Z,100376.97
2019-03-18T02:15:53.297Z,100382.16
2019-03-18T02:18:19.030Z,100378.28
2019-03-18T02:20:50.598Z,100376.17
2019-03-18T02:23:22.505Z,100374.02
2019-03-18T02:25:54.291Z,100381.84
2019-03-18T02:28:26.075Z,100374.91
2019-03-18T02:30:58.245Z,100382.77
2019-03-18T02:33:30.228Z,100394.48
2019-03-18T02:36:01.917Z,100387.13
2019-03-18T02:38:33.520Z,100397.09
2019-03-18T02:41:05.480Z,100397.09
2019-03-18T02:43:37.067Z,100398.38
2019-03-18T02:46:10.652Z,100399.69
2019-03-18T02:48:42.120Z,100399.25
2019-03-18T02:51:13.728Z,100399.20
2019-03-18T02:53:45.297Z,100401.36
2019-03-18T02:56:17.035Z,100402.73
2019-03-18T02:58:48.700Z,100408.38
2019-03-18T03:01:20.471Z,100411.42
2019-03-18T03:03:52.131Z,100411.89
2019-03-18T03:06:23.749Z,100406.19
2019-03-18T03:08:55.309Z,100405.75
2019-03-18T03:11:26.963Z,100406.10
2019-03-18T03:13:58.537Z,100405.15
2019-03-18T03:16:30.301Z,100405.13
2019-03-18T03:19:02.038Z,100404.62
2019-03-18T03:21:33.705Z,100407.63
2019-03-18T03:24:05.271Z,100404.97
2019-03-18T03:26:36.872Z,100407.91
2019-03-18T03:29:08.719Z,100399.63
2019-03-18T03:31:40.455Z,100403.44
2019-03-18T03:34:13.832Z,100404.22
2019-03-18T03:36:45.418Z,100399.95
2019-03-18T03:39:16.993Z,100404.98
2019-03-18T03:41:48.565Z,100406.69
2019-03-18T03:44:20.182Z,100405.75
2019-03-18T03:46:51.764Z,100406.59
2019-03-18T03:49:23.493Z,100410.86
2019-03-18T03:51:55.083Z,100406.94
2019-03-18T03:54:26.704Z,100415.20
2019-03-18T03:56:58.262Z,100407.03
2019-03-18T03:59:29.878Z,100418.81
2019-03-18T04:02:01.945Z,100413.19
2019-03-18T04:04:34.134Z,100412.77
2019-03-18T04:07:05.865Z,100418.84
2019-03-18T04:09:37.517Z,100423.20
2019-03-18T04:12:09.073Z,100422.76
2019-03-18T04:14:40.858Z,100429.27
2019-03-18T04:17:12.561Z,100426.66
2019-03-18T04:19:44.613Z,100435.75
2019-03-18T04:22:16.215Z,100428.38
2019-03-18T04:24:48.008Z,100431.87
2019-03-18T04:27:19.627Z,100434.47
2019-03-18T04:29:51.566Z,100435.31
2019-03-18T04:32:23.176Z,100433.94
2019-03-18T04:34:54.930Z,100423.06
2019-03-18T04:37:26.505Z,100428.22
2019-03-18T04:39:58.118Z,100428.29
2019-03-18T04:42:29.983Z,100436.12
2019-03-18T04:45:01.672Z,100434.88
2019-03-18T04:47:33.341Z,100440.95
2019-03-18T04:50:05.335Z,100452.66
2019-03-18T04:52:36.981Z,100466.55
2019-03-18T04:55:09.043Z,100461.38
2019-03-18T04:57:40.622Z,100469.16
2019-03-18T05:00:12.613Z,100472.60
2019-03-18T05:02:44.267Z,100476.89
2019-03-18T05:05:15.941Z,100482.94
2019-03-18T05:07:47.551Z,100482.88
2019-03-18T05:10:19.342Z,100480.67
2019-03-18T05:12:50.917Z,100470.70
2019-03-18T05:15:22.514Z,100481.11
2019-03-18T05:17:54.090Z,100472.53
2019-03-18T05:20:26.060Z,100483.89
2019-03-18T05:22:57.962Z,100484.00
2019-03-18T05:25:30.119Z,100486.69
2019-03-18T05:28:01.951Z,100488.94
2019-03-18T05:30:33.515Z,100498.13
2019-03-18T05:33:05.125Z,100499.91
2019-03-18T05:35:36.847Z,100506.11
2019-03-18T05:38:08.605Z,100511.34
2019-03-18T05:40:40.227Z,100513.52
2019-03-18T05:43:11.961Z,100517.48
2019-03-18T05:45:43.604Z,100536.56
2019-03-18T05:48:15.295Z,100540.03
2019-03-18T05:50:47.055Z,100542.63
2019-03-18T05:53:18.674Z,100545.22
2019-03-18T05:55:50.351Z,100547.75
2019-03-18T05:58:22.015Z,100550.34
2019-03-18T06:00:53.761Z,100556.78
2019-03-18T06:03:25.351Z,100550.25
2019-03-18T06:05:56.948Z,100559.29
2019-03-18T06:08:28.632Z,100564.90
2019-03-18T06:11:00.259Z,100570.45
2019-03-18T06:13:31.859Z,100575.08
2019-03-18T06:16:03.476Z,100583.30
2019-03-18T06:18:35.155Z,100591.88
2019-03-18T06:21:06.784Z,100590.92
2019-03-18T06:23:38.581Z,100591.99
2019-03-18T06:26:10.160Z,100603.06
2019-03-18T06:28:40.685Z,100600.23
2019-03-18T06:31:09.916Z,100610.09
2019-03-18T06:33:41.508Z,100611.31
2019-03-18T06:36:13.233Z,100611.73
2019-03-18T06:38:45.037Z,100613.00
2019-03-18T06:41:16.624Z,100618.60
2019-03-18T06:43:48.242Z,100618.23
2019-03-18T06:46:19.838Z,100627.37
2019-03-18T06:48:51.437Z,100631.25
2019-03-18T06:51:23.053Z,100627.33
2019-03-18T06:53:54.745Z,100627.70
2019-03-18T06:56:26.514Z,100631.08
2019-03-18T06:58:58.129Z,100632.80
2019-03-18T07:01:29.729Z,100630.64
2019-03-18T07:04:01.363Z,100634.47
2019-03-18T07:06:33.012Z,100630.56
2019-03-18T07:09:05.375Z,100637.94
2019-03-18T07:11:37.185Z,100639.66
2019-03-18T07:14:08.824Z,100636.69
2019-03-18T07:16:40.751Z,100642.29
2019-03-18T07:19:12.392Z,100646.62
2019-03-18T07:21:44.142Z,100649.58
2019-03-18T07:24:15.805Z,100656.86
2019-03-18T07:26:47.621Z,100662.38
2019-03-18T07:29:18.535Z,100666.53
2019-03-18T07:31:47.961Z,100669.37
2019-03-18T07:34:19.595Z,100672.28
2019-03-18T07:36:51.217Z,100671.28
2019-03-18T07:39:23.050Z,100670.73
2019-03-18T07:41:54.926Z,100670.66
2019-03-18T07:44:26.549Z,100663.68
2019-03-18T07:46:58.249Z,100672.31
2019-03-18T07:49:29.839Z,100669.68
2019-03-18T07:52:02.136Z,100673.05
2019-03-18T07:54:33.761Z,100666.50
2019-03-18T07:57:05.546Z,100663.40
2019-03-18T07:59:37.155Z,100675.51
2019-03-18T08:02:08.923Z,100684.92
2019-03-18T08:04:40.530Z,100693.07
2019-03-18T08:07:12.171Z,100697.27
2019-03-18T08:09:43.796Z,100703.28
2019-03-18T08:12:15.415Z,100700.20
2019-03-18T08:14:47.043Z,100707.92
2019-03-18T08:17:18.711Z,100707.82
2019-03-18T08:19:50.438Z,100701.55
2019-03-18T08:22:22.110Z,100708.28
2019-03-18T08:24:54.069Z,100718.51
2019-03-18T08:27:25.693Z,100712.29
2019-03-18T08:29:57.761Z,100711.77
2019-03-18T08:32:29.543Z,100712.05
2019-03-18T08:35:01.309Z,100717.01
2019-03-18T08:37:33.010Z,100705.02
2019-03-18T08:40:05.188Z,100710.30
2019-03-18T08:42:36.882Z,100709.91
2019-03-18T08:45:08.761Z,100706.92
2019-03-18T08:47:40.502Z,100706.70
2019-03-18T08:50:12.928Z,100702.52
2019-03-18T08:52:44.852Z,100701.84
2019-03-18T08:55:16.543Z,100691.66
2019-03-18T08:57:48.311Z,100704.13
2019-03-18T09:00:20.460Z,100697.31
2019-03-18T09:02:52.110Z,100701.17
2019-03-18T09:05:23.960Z,100705.23
2019-03-18T09:07:55.599Z,100707.02
2019-03-18T09:10:27.350Z,100699.17
2019-03-18T09:12:58.984Z,100704.82
2019-03-18T09:15:30.665Z,100710.47
2019-03-18T09:18:02.439Z,100714.42
2019-03-18T09:20:34.230Z,100714.87
2019-03-18T09:23:05.860Z,100716.94
2019-03-18T09:25:37.481Z,100720.01
2019-03-18T09:28:09.713Z,100716.22
2019-03-18T09:30:41.355Z,100724.64
2019-03-18T09:33:12.962Z,100719.92
2019-03-18T09:35:44.777Z,100724.23
2019-03-18T09:38:16.533Z,100722.00
2019-03-18T09:40:48.163Z,100735.45
2019-03-18T09:43:19.878Z,100728.81
2019-03-18T09:45:54.394Z,100727.79
2019-03-18T09:48:24.835Z,100733.30
2019-03-18T09:50:56.625Z,100736.23
2019-03-18T09:53:28.301Z,100733.34
2019-03-18T09:55:59.939Z,100742.58
2019-03-18T09:58:31.547Z,100734.33
2019-03-18T10:01:03.277Z,100734.86
2019-03-18T10:03:34.966Z,100725.92
2019-03-18T10:06:06.760Z,100720.54
2019-03-18T10:08:38.428Z,100726.53
2019-03-18T10:11:10.153Z,100726.38
2019-03-18T10:13:42.010Z,100723.73
2019-03-18T10:16:13.896Z,100721.48
2019-03-18T10:18:45.591Z,100725.86
2019-03-18T10:21:17.353Z,100735.06
2019-03-18T10:23:49.055Z,100736.45
2019-03-18T10:26:20.821Z,100738.84
2019-03-18T10:28:52.628Z,100745.91
2019-03-18T10:31:24.402Z,100747.75
2019-03-18T10:33:56.050Z,100750.70
2019-03-18T10:36:27.764Z,100754.34
2019-03-18T10:38:59.349Z,100748.28
2019-03-18T10:41:30.972Z,100748.05
2019-03-18T10:44:03.854Z,100752.33
2019-03-18T10:46:35.480Z,100753.34
2019-03-18T10:49:07.546Z,100763.14
2019-03-18T10:51:39.098Z,100773.02
2019-03-18T10:54:10.901Z,100769.77
2019-03-18T10:56:42.517Z,100771.34
2019-03-18T10:59:14.161Z,100761.12
2019-03-18T11:01:45.843Z,100761.53
2019-03-18T11:09:20.485Z,100769.64
2019-03-18T11:11:52.249Z,100772.81
2019-03-18T11:14:23.950Z,100760.52
2019-03-18T11:16:55.590Z,100767.86
2019-03-18T11:19:27.560Z,100764.62
2019-03-18T11:21:59.189Z,100769.67
2019-03-18T11:24:30.947Z,100767.66
2019-03-18T11:27:02.606Z,100772.63
2019-03-18T11:29:34.677Z,100764.53
2019-03-18T11:32:06.713Z,100765.11
2019-03-18T11:34:38.654Z,100771.53
2019-03-18T11:37:10.249Z,100768.19
2019-03-18T11:39:42.356Z,100766.63
2019-03-18T11:42:14.076Z,100772.19
2019-03-18T11:44:45.728Z,100771.33
2019-03-18T11:47:17.398Z,100770.73
2019-03-18T11:49:49.065Z,100771.44
2019-03-18T11:52:20.796Z,100770.71
2019-03-18T11:54:52.767Z,100775.87
2019-03-18T11:57:24.391Z,100762.17
2019-03-18T11:59:56.032Z,100765.66
2019-03-18T12:02:28.197Z,100770.22
2019-03-18T12:04:59.973Z,100765.83
2019-03-18T12:07:31.602Z,100753.65
2019-03-18T12:10:03.289Z,100752.70
2019-03-18T12:12:35.313Z,100757.91
2019-03-18T12:15:08.015Z,100761.77
2019-03-18T12:17:39.685Z,100760.77
2019-03-18T12:20:23.759Z,100761.38
2019-03-18T12:22:45.908Z,100769.44
2019-03-18T12:25:17.578Z,100769.67
2019-03-18T12:27:49.625Z,100767.38
2019-03-18T12:30:21.687Z,100771.72
2019-03-18T12:32:53.342Z,100769.22
2019-03-18T12:35:25.493Z,100763.15
2019-03-18T12:37:57.560Z,100766.81
2019-03-18T12:40:29.514Z,100770.19
2019-03-18T12:43:01.519Z,100778.09
2019-03-18T12:45:33.176Z,100772.36
2019-03-18T12:48:04.732Z,100777.53
2019-03-18T12:50:53.879Z,100771.31
2019-03-18T12:53:09.859Z,100774.59
2019-03-18T12:55:41.507Z,100777.29
2019-03-18T12:58:13.812Z,100778.88
2019-03-18T13:00:45.488Z,100778.02
2019-03-18T13:03:17.123Z,100783.44
2019-03-18T13:05:48.788Z,100774.26
2019-03-18T13:08:20.424Z,100780.63
2019-03-18T13:10:52.091Z,100781.58
2019-03-18T13:13:24.528Z,100782.69
2019-03-18T13:15:56.166Z,100773.60
2019-03-18T13:18:27.878Z,100771.75
2019-03-18T13:21:07.709Z,100769.91
2019-03-18T13:23:32.917Z,100763.31
2019-03-18T13:26:04.660Z,100762.41
2019-03-18T13:28:37.252Z,100762.41
2019-03-18T13:31:09.118Z,100761.19
2019-03-18T13:33:41.766Z,100756.50
2019-03-18T13:36:13.493Z,100752.20
2019-03-18T13:38:45.299Z,100751.83
2019-03-18T13:41:17.056Z,100746.59
2019-03-18T13:43:49.048Z,100751.83
2019-03-18T13:46:20.657Z,100752.20
2019-03-18T13:48:52.422Z,100747.81
2019-03-18T13:51:24.062Z,100746.88
2019-03-18T13:53:55.782Z,100745.85
2019-03-18T13:56:27.614Z,100746.14
2019-03-18T13:59:00.104Z,100740.80
2019-03-18T14:01:31.779Z,100734.58
2019-03-18T14:04:03.416Z,100742.86
2019-03-18T14:06:35.243Z,100730.62
2019-03-18T14:09:09.064Z,100738.78
2019-03-18T14:11:40.796Z,100734.35
2019-03-18T14:14:13.115Z,100740.91
2019-03-18T14:16:44.756Z,100735.55
2019-03-18T14:19:16.421Z,100738.98
2019-03-18T14:21:48.042Z,100740.17
2019-03-18T14:24:19.724Z,100733.97
2019-03-18T14:26:51.426Z,100737.38
2019-03-18T14:29:24.069Z,100727.23
2019-03-18T14:31:55.768Z,100738.19
2019-03-18T14:34:27.451Z,100742.94
2019-03-18T14:36:59.329Z,100734.98
2019-03-18T14:39:31.212Z,100732.36
2019-03-18T14:42:02.875Z,100732.36
2019-03-18T14:44:34.781Z,100736.25
2019-03-18T14:47:06.981Z,100737.89
2019-03-18T14:49:38.709Z,100742.07
2019-03-18T14:52:10.423Z,100743.62
2019-03-18T14:54:42.168Z,100730.11
2019-03-18T14:57:13.918Z,100733.66
2019-03-18T14:59:45.524Z,100742.72
2019-03-18T15:02:17.521Z,100740.55
2019-03-18T15:04:49.270Z,100735.75
2019-03-18T15:07:20.995Z,100728.23
2019-03-18T15:09:52.639Z,100733.75
2019-03-18T15:12:24.328Z,100727.88
2019-03-18T15:14:56.023Z,100732.45
2019-03-18T15:17:28.982Z,100724.43
2019-03-18T15:20:00.641Z,100727.41
2019-03-18T15:22:32.236Z,100729.00
2019-03-18T15:25:03.914Z,100733.34
2019-03-18T15:27:35.567Z,100729.68
2019-03-18T15:30:11.396Z,100735.20
2019-03-18T15:32:43.771Z,100732.08
2019-03-18T15:35:15.622Z,100753.42
2019-03-18T15:37:47.605Z,100771.04
2019-03-18T15:40:19.394Z,100789.43
2019-03-18T15:42:51.088Z,100789.20
2019-03-18T15:45:22.712Z,100787.25
2019-03-18T15:47:54.875Z,100787.05
2019-03-18T15:50:26.611Z,100789.01
2019-03-18T15:52:58.502Z,100791.32
2019-03-18T15:55:30.297Z,100801.30
2019-03-18T15:58:02.817Z,100795.65
2019-03-18T16:00:34.547Z,100799.80
2019-03-18T16:03:06.264Z,100804.86
2019-03-18T16:05:38.427Z,100801.14
2019-03-18T16:08:10.191Z,100801.33
2019-03-18T16:10:42.226Z,100797.47
2019-03-18T16:13:13.950Z,100804.84
2019-03-18T16:15:45.763Z,100800.91
2019-03-18T16:18:17.457Z,100803.53
2019-03-18T16:20:49.102Z,100803.91
2019-03-18T16:23:21.310Z,100815.45
2019-03-18T16:25:53.102Z,100817.85
2019-03-18T16:28:24.841Z,100818.45
2019-03-18T16:30:57.014Z,100823.92
2019-03-18T16:33:28.953Z,100825.54
2019-03-18T16:36:00.624Z,100826.25
2019-03-18T16:38:32.714Z,100828.42
2019-03-18T16:41:04.369Z,100830.59
2019-03-18T16:43:36.207Z,100843.30
2019-03-18T16:46:07.998Z,100842.95
2019-03-18T16:48:39.690Z,100842.20
2019-03-18T16:51:11.501Z,100841.08
2019-03-18T16:53:43.206Z,100847.56
2019-03-18T16:56:15.392Z,100853.36
2019-03-18T16:58:47.276Z,100852.61
2019-03-18T17:01:18.970Z,100855.27
2019-03-18T17:03:50.628Z,100859.65
2019-03-18T17:06:22.669Z,100867.96
2019-03-18T17:08:54.457Z,100864.44
2019-03-18T17:11:26.683Z,100865.27
2019-03-18T17:13:58.337Z,100860.36
2019-03-18T17:16:30.564Z,100863.84
2019-03-18T17:19:02.531Z,100872.53
2019-03-18T17:21:34.788Z,100879.09
2019-03-18T17:24:06.619Z,100885.23
2019-03-18T17:26:38.835Z,100901.00
2019-03-18T17:29:11.151Z,100907.69
2019-03-18T17:31:42.982Z,100917.87
2019-03-18T17:34:14.667Z,100927.94
2019-03-18T17:36:46.392Z,100936.08
2019-03-18T17:39:18.067Z,100950.09
2019-03-18T17:41:50.137Z,100958.23
2019-03-18T17:44:21.903Z,100964.41
2019-03-18T17:46:53.955Z,100966.34
2019-03-18T17:49:25.717Z,100978.20
2019-03-18T17:51:57.423Z,100973.84
2019-03-18T17:54:29.684Z,100974.14
2019-03-18T17:57:07.066Z,100966.84
2019-03-18T17:59:35.286Z,100964.25
2019-03-18T18:02:07.587Z,100962.86
2019-03-18T18:04:39.370Z,100968.93
2019-03-18T18:07:11.312Z,100962.42
2019-03-18T18:09:43.508Z,100960.67
2019-03-18T18:12:15.191Z,100966.78
2019-03-18T18:14:46.908Z,100969.03
2019-03-18T18:17:19.079Z,100966.08
2019-03-18T18:19:51.546Z,100970.08
2019-03-18T18:22:23.333Z,100965.32
2019-03-18T18:24:55.155Z,100973.65
2019-03-18T18:27:26.965Z,100979.31
2019-03-18T18:29:59.006Z,100982.78
2019-03-18T18:32:30.870Z,100985.84
2019-03-18T18:35:03.482Z,100981.92
2019-03-18T18:37:35.191Z,100982.78
2019-03-18T18:40:09.742Z,100990.28
2019-03-18T18:42:41.698Z,100988.75
2019-03-18T18:45:14.564Z,100996.73
2019-03-18T18:47:46.647Z,100993.37
2019-03-18T18:50:19.283Z,100993.88
2019-03-18T18:52:51.305Z,100987.86
2019-03-18T18:55:22.981Z,100999.64
2019-03-18T18:57:55.002Z,101006.22
2019-03-18T19:00:26.919Z,101008.94
2019-03-18T19:02:58.667Z,101013.02
2019-03-18T19:05:31.110Z,101018.77
2019-03-18T19:08:02.804Z,101015.87
2019-03-18T19:10:34.536Z,101019.48
2019-03-18T19:13:06.271Z,101018.64
2019-03-18T19:15:38.483Z,101025.59
2019-03-18T19:18:10.234Z,101029.92
2019-03-18T19:20:42.497Z,101034.63
2019-03-18T19:23:14.360Z,101040.20
2019-03-18T19:25:46.594Z,101038.84
2019-03-18T19:28:18.427Z,101047.09
2019-03-18T19:30:50.454Z,101049.67
2019-03-18T19:33:22.316Z,101045.41
2019-03-18T19:35:54.407Z,101040.28
2019-03-18T19:38:26.178Z,101055.13
2019-03-18T19:40:57.942Z,101057.80
2019-03-18T19:43:29.898Z,101058.67
2019-03-18T19:46:01.625Z,101056.50
2019-03-18T19:48:34.455Z,101061.29
2019-03-18T19:51:07.101Z,101058.68
2019-03-18T19:53:48.648Z,101056.92
2019-03-18T19:56:13.425Z,101058.23
2019-03-18T19:58:45.243Z,101063.45
2019-03-18T20:01:17.121Z,101060.91
2019-03-18T20:03:49.218Z,101066.63
2019-03-18T20:06:21.186Z,101073.59
2019-03-18T20:08:53.515Z,101072.77
2019-03-18T20:11:25.382Z,101074.97
2019-03-18T20:13:57.192Z,101072.47
2019-03-18T20:16:28.866Z,101079.49
2019-03-18T20:19:00.748Z,101081.30
2019-03-18T20:21:32.506Z,101083.58
2019-03-18T20:24:04.959Z,101081.47
2019-03-18T20:26:36.800Z,101095.42
2019-03-18T20:29:09.082Z,101089.36
2019-03-18T20:31:40.861Z,101085.44
2019-03-18T20:34:12.776Z,101087.56
2019-03-18T20:36:44.774Z,101097.10
2019-03-18T20:39:16.914Z,101097.09
2019-03-18T20:41:48.677Z,101099.77
2019-03-18T20:44:20.541Z,101102.04
2019-03-18T20:46:52.585Z,101105.56
2019-03-18T20:49:24.515Z,101110.34
2019-03-18T20:51:56.221Z,101111.66
2019-03-18T20:54:28.435Z,101114.74
2019-03-18T20:57:00.306Z,101123.42
2019-03-18T20:59:32.257Z,101131.71
2019-03-18T21:02:04.458Z,101135.19
2019-03-18T21:04:36.264Z,101139.13
2019-03-18T21:07:08.025Z,101137.40
2019-03-18T21:09:40.373Z,101145.17
2019-03-18T21:12:12.095Z,101153.84
2019-03-18T21:14:44.347Z,101157.27
2019-03-18T21:17:16.364Z,101159.88
2019-03-18T21:19:48.639Z,101158.58
2019-03-18T21:22:20.422Z,101153.35
2019-03-18T21:24:52.852Z,101162.03
2019-03-18T21:27:24.712Z,101166.78
2019-03-18T21:29:57.004Z,101178.97
2019-03-18T21:32:28.684Z,101174.24
2019-03-18T21:35:00.413Z,101181.62
2019-03-18T21:37:32.142Z,101172.94
2019-03-18T21:40:04.665Z,101173.33
2019-03-18T21:42:37.088Z,101173.72
2019-03-18T21:45:10.950Z,101176.36
2019-03-18T21:47:42.651Z,101170.67
2019-03-18T21:50:15.044Z,101180.22
2019-03-18T21:52:47.065Z,101174.19
2019-03-18T21:55:20.155Z,101175.02
2019-03-18T21:57:51.976Z,101178.97
2019-03-18T22:00:23.782Z,101174.71
2019-03-18T22:02:55.432Z,101184.70
2019-03-18T22:05:27.178Z,101179.09
2019-03-18T22:07:58.940Z,101172.59
2019-03-18T22:10:30.609Z,101174.75
2019-03-18T22:13:02.737Z,101172.97
2019-03-18T22:15:35.004Z,101171.24
2019-03-18T22:18:06.895Z,101176.05
2019-03-18T22:20:38.782Z,101175.63
2019-03-18T22:23:10.433Z,101182.13
2019-03-18T22:25:42.279Z,101179.92
2019-03-18T22:28:14.409Z,101190.30
2019-03-18T22:30:46.384Z,101184.66
2019-03-18T22:33:18.028Z,101190.69
2019-03-18T22:35:49.680Z,101188.52
2019-03-18T22:38:21.334Z,101195.89
2019-03-18T22:40:53.186Z,101199.33
2019-03-18T22:43:25.255Z,101191.94
2019-03-18T22:45:56.897Z,101192.33
2019-03-18T22:48:28.842Z,101189.72
2019-03-18T22:51:00.840Z,101194.06
2019-03-18T22:53:32.630Z,101194.10
2019-03-18T22:56:04.317Z,101192.81
2019-03-18T22:58:36.789Z,101190.67
2019-03-18T23:01:13.962Z,101193.71
2019-03-18T23:03:45.591Z,101194.97
2019-03-18T23:06:17.596Z,101196.23
2019-03-18T23:08:49.535Z,101189.28
2019-03-18T23:11:21.247Z,101187.98
2019-03-18T23:13:53.457Z,101194.11
2019-03-18T23:16:25.163Z,101195.02
2019-03-18T23:18:57.659Z,101193.72
2019-03-18T23:21:29.359Z,101195.41
2019-03-18T23:24:00.941Z,101201.92
2019-03-18T23:26:32.944Z,101203.18
2019-03-18T23:29:04.638Z,101202.30
2019-03-18T23:31:38.087Z,101201.83
2019-03-18T23:34:09.742Z,101199.61
2019-03-18T23:36:41.409Z,101196.96
2019-03-18T23:39:13.068Z,101203.03
2019-03-18T23:41:44.729Z,101205.16
2019-03-18T23:44:16.335Z,101202.13
2019-03-18T23:46:48.430Z,101202.95
2019-03-18T23:49:20.232Z,101202.08
2019-03-18T23:51:52.270Z,101204.67
2019-03-18T23:54:23.896Z,101203.33
2019-03-18T23:56:55.687Z,101204.20
2019-03-18T23:59:27.373Z,101208.09
